createdAt,value
2022-12-25T00:01:47.896Z,101157.25
2022-12-25T00:06:52.232Z,101150.44
2022-12-25T00:11:55.056Z,101158.19
2022-12-25T00:16:57.820Z,101155.50
2022-12-25T00:22:02.109Z,101167.00
2022-12-25T00:27:05.104Z,101173.78
2022-12-25T00:32:08.611Z,101187.66
2022-12-25T00:37:12.789Z,101202.00
2022-12-25T00:42:21.384Z,101183.59
2022-12-25T00:47:24.521Z,101198.56
2022-12-25T00:52:28.762Z,101187.41
2022-12-25T00:57:31.662Z,101172.31
2022-12-25T01:02:34.683Z,101170.19
2022-12-25T01:07:38.939Z,101176.38
2022-12-25T01:12:43.484Z,101184.34
2022-12-25T01:17:46.550Z,101171.66
2022-12-25T01:22:50.755Z,101184.50
2022-12-25T01:27:53.525Z,101185.72
2022-12-25T01:32:56.307Z,101196.75
2022-12-25T01:38:00.630Z,101200.81
2022-12-25T01:43:03.507Z,101218.16
2022-12-25T01:48:11.127Z,101229.00
2022-12-25T01:53:15.476Z,101230.06
2022-12-25T01:58:19.093Z,101231.72
2022-12-25T02:03:23.547Z,101236.06
2022-12-25T02:08:28.210Z,101240.59
2022-12-25T02:13:31.042Z,101236.53
2022-12-25T02:18:42.156Z,101248.19
2022-12-25T02:24:10.465Z,101248.94
2022-12-25T02:29:22.675Z,101248.94
2022-12-25T02:34:32.925Z,101251.34
2022-12-25T02:40:01.489Z,101245.59
2022-12-25T02:45:23.810Z,101240.78
2022-12-25T02:50:44.974Z,101249.34
2022-12-25T02:56:08.183Z,101238.16
2022-12-25T03:01:34.163Z,101241.94
2022-12-25T03:06:44.301Z,101237.09
2022-12-25T03:12:00.104Z,101235.00
2022-12-25T03:17:04.417Z,101235.13
2022-12-25T03:22:28.007Z,101224.88
2022-12-25T03:27:34.600Z,101238.88
2022-12-25T03:32:46.085Z,101248.38
2022-12-25T03:38:17.894Z,101229.72
2022-12-25T03:43:48.322Z,101231.53
2022-12-25T03:49:18.253Z,101235.19
2022-12-25T03:54:45.207Z,101219.38
2022-12-25T04:00:05.230Z,101215.59
2022-12-25T04:05:30.973Z,101197.34
2022-12-25T04:10:51.242Z,101190.44
2022-12-25T04:16:11.918Z,101184.38
2022-12-25T04:21:34.217Z,101181.06
2022-12-25T04:26:54.414Z,101187.72
2022-12-25T04:32:14.682Z,101179.28
2022-12-25T04:37:18.849Z,101174.28
2022-12-25T04:42:21.800Z,101174.13
2022-12-25T04:47:25.028Z,101160.38
2022-12-25T04:52:29.575Z,101171.50
2022-12-25T04:57:32.382Z,101172.13
2022-12-25T05:02:35.873Z,101163.34
2022-12-25T05:07:40.142Z,101161.78
2022-12-25T05:12:43.642Z,101141.50
2022-12-25T05:17:46.509Z,101151.47
2022-12-25T05:22:52.038Z,101155.53
2022-12-25T05:27:54.834Z,101143.94
2022-12-25T05:32:57.665Z,101132.94
2022-12-25T05:38:01.864Z,101134.47
2022-12-25T05:43:04.597Z,101125.09
2022-12-25T05:48:07.809Z,101123.75
2022-12-25T05:53:14.365Z,101128.28
2022-12-25T05:58:17.192Z,101134.47
2022-12-25T06:03:20.043Z,101139.28
2022-12-25T06:08:24.346Z,101123.91
2022-12-25T06:13:27.116Z,101120.28
2022-12-25T06:18:29.923Z,101127.22
2022-12-25T06:23:34.614Z,101123.13
2022-12-25T06:28:38.576Z,101131.59
2022-12-25T06:33:42.942Z,101125.06
2022-12-25T06:38:47.234Z,101147.38
2022-12-25T06:43:50.673Z,101148.63
2022-12-25T06:48:54.019Z,101147.28
2022-12-25T06:53:58.933Z,101146.09
2022-12-25T06:59:03.340Z,101143.19
2022-12-25T07:04:08.755Z,101139.00
2022-12-25T07:09:12.952Z,101150.72
2022-12-25T07:14:23.393Z,101161.31
2022-12-25T07:19:26.930Z,101173.97
2022-12-25T07:24:31.111Z,101169.75
2022-12-25T07:29:33.919Z,101161.31
2022-12-25T07:34:36.820Z,101156.63
2022-12-25T07:39:40.981Z,101147.44
2022-12-25T07:44:43.937Z,101142.72
2022-12-25T07:49:46.982Z,101153.59
2022-12-25T07:54:51.170Z,101137.72
2022-12-25T07:59:53.921Z,101132.59
2022-12-25T08:04:57.037Z,101129.88
2022-12-25T08:10:01.182Z,101122.91
2022-12-25T08:15:04.112Z,101104.06
2022-12-25T08:20:08.658Z,101103.88
2022-12-25T08:25:12.884Z,101116.41
2022-12-25T08:30:15.920Z,101113.41
2022-12-25T08:35:18.825Z,101110.66
2022-12-25T08:40:23.035Z,101110.06
2022-12-25T08:45:31.228Z,101100.97
2022-12-25T08:50:37.429Z,101109.59
2022-12-25T08:55:43.170Z,101112.75
2022-12-25T09:00:45.995Z,101128.84
2022-12-25T09:05:48.756Z,101132.00
2022-12-25T09:10:52.922Z,101126.66
2022-12-25T09:15:55.718Z,101134.38
2022-12-25T09:21:00.185Z,101124.00
2022-12-25T09:26:06.209Z,101128.47
2022-12-25T09:31:09.124Z,101123.53
2022-12-25T09:36:12.064Z,101120.84
2022-12-25T09:41:21.841Z,101126.41
2022-12-25T09:46:34.729Z,101114.88
2022-12-25T09:51:41.945Z,101119.81
2022-12-25T09:56:46.151Z,101123.44
2022-12-25T10:02:02.163Z,101134.41
2022-12-25T10:07:17.391Z,101139.75
2022-12-25T10:12:38.417Z,101125.09
2022-12-25T10:17:56.449Z,101119.22
2022-12-25T10:23:02.546Z,101101.44
2022-12-25T10:28:14.241Z,101110.38
2022-12-25T10:33:22.534Z,101089.72
2022-12-25T10:38:25.479Z,101069.94
2022-12-25T10:43:36.690Z,101062.16
2022-12-25T10:48:42.908Z,101061.47
2022-12-25T10:53:45.772Z,101051.34
2022-12-25T10:58:49.927Z,101046.56
2022-12-25T11:03:53.650Z,101028.97
2022-12-25T11:08:59.353Z,101023.03
2022-12-25T11:14:04.238Z,101009.66
2022-12-25T11:19:27.768Z,101006.84
2022-12-25T11:24:32.956Z,100995.00
2022-12-25T11:29:44.909Z,101003.09
2022-12-25T11:34:49.825Z,100993.41
2022-12-25T11:39:52.788Z,100996.75
2022-12-25T11:45:02.986Z,100997.16
2022-12-25T11:50:15.116Z,100979.66
2022-12-25T11:55:22.774Z,100984.66
2022-12-25T12:00:28.461Z,100998.84
2022-12-25T12:05:36.114Z,100990.97
2022-12-25T12:10:51.745Z,101003.09
2022-12-25T12:15:56.525Z,101002.16
2022-12-25T12:21:01.663Z,100994.69
2022-12-25T12:26:05.215Z,100983.00
2022-12-25T12:31:10.508Z,100976.28
2022-12-25T12:36:15.411Z,100956.47
2022-12-25T12:41:19.119Z,100961.63
2022-12-25T12:46:30.601Z,100953.88
2022-12-25T12:51:35.718Z,100940.59
2022-12-25T12:56:39.649Z,100921.66
2022-12-25T13:01:52.775Z,100905.19
2022-12-25T13:07:05.199Z,100891.50
2022-12-25T13:12:09.389Z,100891.75
2022-12-25T13:17:19.386Z,100895.13
2022-12-25T13:22:27.536Z,100897.81
2022-12-25T13:27:32.542Z,100882.91
2022-12-25T13:32:36.933Z,100864.34
2022-12-25T13:37:39.937Z,100864.88
2022-12-25T13:42:48.046Z,100870.41
2022-12-25T13:47:55.684Z,100870.53
2022-12-25T13:53:11.178Z,100868.72
2022-12-25T13:58:26.058Z,100865.28
2022-12-25T14:03:35.838Z,100871.13
2022-12-25T14:08:38.916Z,100861.94
2022-12-25T14:13:43.814Z,100864.53
2022-12-25T14:18:56.202Z,100869.56
2022-12-25T14:23:59.551Z,100848.06
2022-12-25T14:29:16.832Z,100832.78
2022-12-25T14:34:24.046Z,100823.88
2022-12-25T14:39:31.918Z,100830.06
2022-12-25T14:44:36.820Z,100822.50
2022-12-25T14:49:41.282Z,100817.34
2022-12-25T14:54:47.754Z,100808.69
2022-12-25T14:59:57.808Z,100807.03
2022-12-25T15:05:01.903Z,100805.50
2022-12-25T15:10:57.564Z,100798.63
2022-12-25T15:15:34.794Z,100807.28
2022-12-25T15:20:39.071Z,100809.47
2022-12-25T15:25:41.848Z,100807.69
2022-12-25T15:30:44.929Z,100789.53
2022-12-25T15:35:49.114Z,100783.72
2022-12-25T15:40:52.695Z,100770.63
2022-12-25T15:45:55.571Z,100763.13
2022-12-25T15:51:00.189Z,100760.97
2022-12-25T15:56:02.926Z,100761.75
2022-12-25T16:01:06.050Z,100757.78
2022-12-25T16:06:12.735Z,100760.63
2022-12-25T16:11:15.473Z,100748.50
2022-12-25T16:16:19.198Z,100750.84
2022-12-25T16:21:24.046Z,100738.38
2022-12-25T16:26:27.671Z,100729.69
2022-12-25T16:31:30.701Z,100720.09
2022-12-25T16:36:35.832Z,100714.69
2022-12-25T16:41:39.013Z,100710.16
2022-12-25T16:46:42.116Z,100706.72
2022-12-25T16:51:46.328Z,100698.75
2022-12-25T16:56:49.130Z,100692.69
2022-12-25T17:01:52.018Z,100684.72
2022-12-25T17:06:56.828Z,100674.97
2022-12-25T17:11:59.729Z,100668.53
2022-12-25T17:17:03.408Z,100662.25
2022-12-25T17:22:07.623Z,100664.69
2022-12-25T17:27:10.657Z,100664.81
2022-12-25T17:32:13.891Z,100667.50
2022-12-25T17:37:18.111Z,100655.53
2022-12-25T17:42:21.263Z,100655.66
2022-12-25T17:47:24.189Z,100645.13
2022-12-25T17:52:28.386Z,100643.81
2022-12-25T17:57:31.411Z,100633.53
2022-12-25T18:02:34.415Z,100623.41
2022-12-25T18:07:38.684Z,100618.22
2022-12-25T18:12:43.795Z,100598.38
2022-12-25T18:17:46.621Z,100612.56
2022-12-25T18:22:50.775Z,100589.25
2022-12-25T18:27:53.893Z,100588.38
2022-12-25T18:32:56.641Z,100589.25
2022-12-25T18:38:00.792Z,100587.75
2022-12-25T18:43:04.361Z,100581.72
2022-12-25T18:48:07.270Z,100569.09
2022-12-25T18:53:11.402Z,100554.31
2022-12-25T18:58:14.214Z,100548.38
2022-12-25T19:03:17.048Z,100549.53
2022-12-25T19:08:21.186Z,100536.19
2022-12-25T19:13:24.129Z,100531.97
2022-12-25T19:18:26.996Z,100514.97
2022-12-25T19:23:31.236Z,100513.03
2022-12-25T19:28:34.193Z,100506.88
2022-12-25T19:33:38.417Z,100507.59
2022-12-25T19:38:47.137Z,100503.66
2022-12-25T19:43:53.488Z,100497.78
2022-12-25T19:48:57.658Z,100491.31
2022-12-25T19:54:04.307Z,100477.97
2022-12-25T19:59:08.093Z,100478.75
2022-12-25T20:04:11.584Z,100469.34
2022-12-25T20:09:21.056Z,100487.91
2022-12-25T20:14:24.535Z,100466.41
2022-12-25T20:19:27.335Z,100457.69
2022-12-25T20:24:34.318Z,100478.16
2022-12-25T20:29:38.354Z,100485.16
2022-12-25T20:34:43.053Z,100479.31
2022-12-25T20:39:47.265Z,100477.91
2022-12-25T20:44:50.624Z,100475.59
2022-12-25T20:49:58.291Z,100470.53
2022-12-25T20:55:05.479Z,100473.66
2022-12-25T21:00:09.682Z,100473.56
2022-12-25T21:05:13.217Z,100477.22
2022-12-25T21:10:17.524Z,100480.59
2022-12-25T21:15:20.582Z,100468.75
2022-12-25T21:20:23.418Z,100473.13
2022-12-25T21:25:30.879Z,100469.06
2022-12-25T21:30:36.336Z,100453.75
2022-12-25T21:35:42.061Z,100458.91
2022-12-25T21:40:46.289Z,100457.47
2022-12-25T21:45:51.754Z,100466.13
2022-12-25T21:51:12.291Z,100456.69
2022-12-25T21:56:19.393Z,100460.44
2022-12-25T22:01:26.589Z,100465.28
2022-12-25T22:06:50.088Z,100460.38
2022-12-25T22:12:11.994Z,100455.72
2022-12-25T22:17:34.577Z,100451.66
2022-12-25T22:22:37.779Z,100448.91
2022-12-25T22:27:43.440Z,100455.00
2022-12-25T22:32:47.230Z,100463.78
2022-12-25T22:37:53.363Z,100465.78
2022-12-25T22:42:57.988Z,100458.25
2022-12-25T22:48:00.693Z,100451.25
2022-12-25T22:53:03.550Z,100458.53
2022-12-25T22:58:07.618Z,100458.44
2022-12-25T23:03:10.763Z,100449.63
2022-12-25T23:08:13.686Z,100451.47
2022-12-25T23:13:35.539Z,100464.22
2022-12-25T23:18:55.859Z,100472.91
2022-12-25T23:24:16.195Z,100468.56
2022-12-25T23:29:40.359Z,100453.38
2022-12-25T23:34:44.545Z,100456.88
2022-12-25T23:39:47.904Z,100461.22
2022-12-25T23:44:52.085Z,100461.88
2022-12-25T23:49:55.382Z,100443.84
2022-12-25T23:54:58.228Z,100444.84
